TAF Text Data
IDs:
Format:
Raw Decoded Include METAR

Data at: 0857 UTC 16 Oct 2018

KOLS 160854Z AUTO 24006KT 10SM FEW014 SCT024 OVC029 12/10 A2999 RMK AO2 SLP105 T01220100 55001

KOLS 160536Z 1606/1706 34005KT P6SM VCSH SCT025 BKN050
  TEMPO 1606/1609 4SM -SHRA SCT020 BKN025
  FM160900 09009KT P6SM VCSH SCT025 BKN050
  FM161700 14007KT P6SM SCT060
  FM162200 24006KT P6SM SCT070
  FM170200 06007KT P6SM FEW070